sensor_id;sensor_type;location;lat;lon;timestamp;P1;durP1;ratioP1;P2;durP2;ratioP2
18176;SDS011;9213;50.858;3.964;2023-07-22T00:00:44;12.60;;;8.87;;
18176;SDS011;9213;50.858;3.964;2023-07-22T00:03:11;11.53;;;10.03;;
18176;SDS011;9213;50.858;3.964;2023-07-22T00:05:39;11.47;;;8.90;;
18176;SDS011;9213;50.858;3.964;2023-07-22T00:08:08;13.67;;;9.33;;
18176;SDS011;9213;50.858;3.964;2023-07-22T00:10:34;13.30;;;9.77;;
18176;SDS011;9213;50.858;3.964;2023-07-22T00:13:01;13.00;;;9.40;;
18176;SDS011;9213;50.858;3.964;2023-07-22T00:15:28;16.63;;;9.33;;
18176;SDS011;9213;50.858;3.964;2023-07-22T00:17:55;12.80;;;9.33;;
18176;SDS011;9213;50.858;3.964;2023-07-22T00:20:22;13.10;;;9.13;;
18176;SDS011;9213;50.858;3.964;2023-07-22T00:22:50;15.67;;;9.37;;
18176;SDS011;9213;50.858;3.964;2023-07-22T00:25:19;15.10;;;9.93;;
18176;SDS011;9213;50.858;3.964;2023-07-22T00:27:47;16.35;;;9.45;;
18176;SDS011;9213;50.858;3.964;2023-07-22T00:30:14;14.33;;;9.30;;
18176;SDS011;9213;50.858;3.964;2023-07-22T00:32:41;13.13;;;9.17;;
18176;SDS011;9213;50.858;3.964;2023-07-22T00:35:08;13.77;;;8.80;;
18176;SDS011;9213;50.858;3.964;2023-07-22T00:37:35;15.40;;;9.63;;
18176;SDS011;9213;50.858;3.964;2023-07-22T00:40:02;16.17;;;9.87;;
18176;SDS011;9213;50.858;3.964;2023-07-22T00:42:32;11.70;;;9.23;;
18176;SDS011;9213;50.858;3.964;2023-07-22T00:44:59;11.77;;;9.30;;
18176;SDS011;9213;50.858;3.964;2023-07-22T00:47:26;12.93;;;8.80;;
18176;SDS011;9213;50.858;3.964;2023-07-22T00:49:53;14.23;;;10.53;;
18176;SDS011;9213;50.858;3.964;2023-07-22T00:52:21;13.03;;;10.00;;
18176;SDS011;9213;50.858;3.964;2023-07-22T00:54:48;12.17;;;9.00;;
18176;SDS011;9213;50.858;3.964;2023-07-22T00:57:15;13.80;;;9.63;;
18176;SDS011;9213;50.858;3.964;2023-07-22T00:59:44;15.43;;;10.07;;
18176;SDS011;9213;50.858;3.964;2023-07-22T01:02:11;15.33;;;9.77;;
18176;SDS011;9213;50.858;3.964;2023-07-22T01:04:38;13.40;;;9.60;;
18176;SDS011;9213;50.858;3.964;2023-07-22T01:07:05;14.57;;;9.70;;
18176;SDS011;9213;50.858;3.964;2023-07-22T01:09:34;14.43;;;10.13;;
18176;SDS011;9213;50.858;3.964;2023-07-22T01:12:02;14.37;;;9.90;;
18176;SDS011;9213;50.858;3.964;2023-07-22T01:14:31;15.57;;;9.77;;
18176;SDS011;9213;50.858;3.964;2023-07-22T01:17:00;15.20;;;9.67;;
18176;SDS011;9213;50.858;3.964;2023-07-22T01:19:28;12.13;;;9.00;;
18176;SDS011;9213;50.858;3.964;2023-07-22T01:21:55;15.40;;;10.37;;
18176;SDS011;9213;50.858;3.964;2023-07-22T01:24:24;15.20;;;10.23;;
18176;SDS011;9213;50.858;3.964;2023-07-22T01:26:52;11.80;;;9.27;;
18176;SDS011;9213;50.858;3.964;2023-07-22T01:29:19;16.00;;;10.00;;
18176;SDS011;9213;50.858;3.964;2023-07-22T01:31:47;18.00;;;10.87;;
18176;SDS011;9213;50.858;3.964;2023-07-22T01:34:16;14.03;;;10.30;;
18176;SDS011;9213;50.858;3.964;2023-07-22T01:36:43;16.30;;;9.53;;
18176;SDS011;9213;50.858;3.964;2023-07-22T01:39:11;17.50;;;10.10;;
18176;SDS011;9213;50.858;3.964;2023-07-22T01:41:39;14.23;;;9.53;;
18176;SDS011;9213;50.858;3.964;2023-07-22T01:44:06;15.17;;;10.60;;
18176;SDS011;9213;50.858;3.964;2023-07-22T01:46:33;14.43;;;10.30;;
18176;SDS011;9213;50.858;3.964;2023-07-22T01:49:01;17.30;;;10.73;;
18176;SDS011;9213;50.858;3.964;2023-07-22T01:51:28;17.67;;;10.73;;
18176;SDS011;9213;50.858;3.964;2023-07-22T01:53:55;15.10;;;10.17;;
18176;SDS011;9213;50.858;3.964;2023-07-22T01:56:22;17.00;;;10.27;;
18176;SDS011;9213;50.858;3.964;2023-07-22T01:58:51;17.30;;;10.40;;
18176;SDS011;9213;50.858;3.964;2023-07-22T02:01:18;16.23;;;10.57;;
18176;SDS011;9213;50.858;3.964;2023-07-22T02:03:45;17.00;;;10.10;;
18176;SDS011;9213;50.858;3.964;2023-07-22T02:06:12;15.63;;;10.73;;
18176;SDS011;9213;50.858;3.964;2023-07-22T02:08:39;17.63;;;11.07;;
18176;SDS011;9213;50.858;3.964;2023-07-22T02:11:06;16.17;;;10.00;;
18176;SDS011;9213;50.858;3.964;2023-07-22T02:13:35;17.53;;;10.90;;
18176;SDS011;9213;50.858;3.964;2023-07-22T02:16:03;15.77;;;10.57;;
18176;SDS011;9213;50.858;3.964;2023-07-22T02:18:30;19.00;;;11.43;;
18176;SDS011;9213;50.858;3.964;2023-07-22T02:20:57;15.70;;;10.47;;
18176;SDS011;9213;50.858;3.964;2023-07-22T02:23:24;16.53;;;10.73;;
18176;SDS011;9213;50.858;3.964;2023-07-22T02:25:51;17.60;;;11.33;;
18176;SDS011;9213;50.858;3.964;2023-07-22T02:28:19;18.93;;;11.07;;
18176;SDS011;9213;50.858;3.964;2023-07-22T02:30:48;13.43;;;9.87;;
18176;SDS011;9213;50.858;3.964;2023-07-22T02:33:19;15.17;;;10.53;;
18176;SDS011;9213;50.858;3.964;2023-07-22T02:35:47;15.43;;;10.33;;
18176;SDS011;9213;50.858;3.964;2023-07-22T02:38:14;17.23;;;10.20;;
18176;SDS011;9213;50.858;3.964;2023-07-22T02:40:41;14.43;;;11.23;;
18176;SDS011;9213;50.858;3.964;2023-07-22T02:43:08;17.87;;;10.60;;
18176;SDS011;9213;50.858;3.964;2023-07-22T02:45:36;15.60;;;11.20;;
18176;SDS011;9213;50.858;3.964;2023-07-22T02:48:03;17.47;;;10.50;;
18176;SDS011;9213;50.858;3.964;2023-07-22T02:50:31;17.10;;;10.57;;
18176;SDS011;9213;50.858;3.964;2023-07-22T02:52:58;16.40;;;10.57;;
18176;SDS011;9213;50.858;3.964;2023-07-22T02:55:25;15.60;;;10.37;;
18176;SDS011;9213;50.858;3.964;2023-07-22T02:57:53;25.10;;;10.80;;
18176;SDS011;9213;50.858;3.964;2023-07-22T03:00:20;17.53;;;10.63;;
18176;SDS011;9213;50.858;3.964;2023-07-22T03:02:49;16.93;;;11.23;;
18176;SDS011;9213;50.858;3.964;2023-07-22T03:05:17;19.10;;;11.00;;
18176;SDS011;9213;50.858;3.964;2023-07-22T03:07:46;22.13;;;11.73;;
18176;SDS011;9213;50.858;3.964;2023-07-22T03:10:13;18.13;;;11.23;;
18176;SDS011;9213;50.858;3.964;2023-07-22T03:12:40;16.53;;;10.63;;
18176;SDS011;9213;50.858;3.964;2023-07-22T03:15:07;14.40;;;10.13;;
18176;SDS011;9213;50.858;3.964;2023-07-22T03:17:35;15.87;;;10.40;;
18176;SDS011;9213;50.858;3.964;2023-07-22T03:20:02;14.33;;;11.40;;
18176;SDS011;9213;50.858;3.964;2023-07-22T03:22:39;16.40;;;10.97;;
18176;SDS011;9213;50.858;3.964;2023-07-22T03:25:07;20.00;;;10.97;;
18176;SDS011;9213;50.858;3.964;2023-07-22T03:27:35;17.20;;;11.43;;
18176;SDS011;9213;50.858;3.964;2023-07-22T03:30:03;20.87;;;10.97;;
18176;SDS011;9213;50.858;3.964;2023-07-22T03:32:32;17.40;;;11.30;;
18176;SDS011;9213;50.858;3.964;2023-07-22T03:34:59;15.50;;;11.00;;
18176;SDS011;9213;50.858;3.964;2023-07-22T03:37:28;18.43;;;11.93;;
18176;SDS011;9213;50.858;3.964;2023-07-22T03:39:55;19.03;;;11.70;;
18176;SDS011;9213;50.858;3.964;2023-07-22T03:42:23;19.03;;;11.83;;
18176;SDS011;9213;50.858;3.964;2023-07-22T03:44:50;19.80;;;11.73;;
18176;SDS011;9213;50.858;3.964;2023-07-22T03:47:17;15.73;;;10.77;;
18176;SDS011;9213;50.858;3.964;2023-07-22T03:49:45;14.30;;;11.20;;
18176;SDS011;9213;50.858;3.964;2023-07-22T03:52:12;18.53;;;11.97;;
18176;SDS011;9213;50.858;3.964;2023-07-22T03:54:39;19.53;;;11.20;;
18176;SDS011;9213;50.858;3.964;2023-07-22T03:57:06;14.77;;;10.80;;
18176;SDS011;9213;50.858;3.964;2023-07-22T03:59:34;18.77;;;11.00;;
18176;SDS011;9213;50.858;3.964;2023-07-22T04:02:01;18.07;;;11.97;;
18176;SDS011;9213;50.858;3.964;2023-07-22T04:04:28;16.73;;;11.40;;
18176;SDS011;9213;50.858;3.964;2023-07-22T04:06:55;16.67;;;11.53;;
18176;SDS011;9213;50.858;3.964;2023-07-22T04:09:22;17.00;;;11.57;;
18176;SDS011;9213;50.858;3.964;2023-07-22T04:11:49;21.83;;;11.80;;
18176;SDS011;9213;50.858;3.964;2023-07-22T04:14:16;16.50;;;11.40;;
18176;SDS011;9213;50.858;3.964;2023-07-22T04:16:44;19.30;;;11.83;;
18176;SDS011;9213;50.858;3.964;2023-07-22T04:19:11;18.23;;;12.13;;
18176;SDS011;9213;50.858;3.964;2023-07-22T04:21:38;18.03;;;11.50;;
18176;SDS011;9213;50.858;3.964;2023-07-22T04:24:05;22.10;;;11.53;;
18176;SDS011;9213;50.858;3.964;2023-07-22T04:26:32;18.73;;;11.60;;
18176;SDS011;9213;50.858;3.964;2023-07-22T04:28:59;23.10;;;12.00;;
18176;SDS011;9213;50.858;3.964;2023-07-22T04:31:26;22.47;;;12.67;;
18176;SDS011;9213;50.858;3.964;2023-07-22T04:33:54;17.23;;;11.87;;
18176;SDS011;9213;50.858;3.964;2023-07-22T04:36:21;19.17;;;11.47;;
18176;SDS011;9213;50.858;3.964;2023-07-22T04:38:48;19.53;;;12.10;;
18176;SDS011;9213;50.858;3.964;2023-07-22T04:41:15;17.03;;;11.57;;
18176;SDS011;9213;50.858;3.964;2023-07-22T04:43:42;18.27;;;11.53;;
18176;SDS011;9213;50.858;3.964;2023-07-22T04:46:09;22.03;;;13.27;;
18176;SDS011;9213;50.858;3.964;2023-07-22T04:48:36;20.67;;;11.70;;
18176;SDS011;9213;50.858;3.964;2023-07-22T04:51:04;20.20;;;11.37;;
18176;SDS011;9213;50.858;3.964;2023-07-22T04:53:31;18.83;;;12.37;;
18176;SDS011;9213;50.858;3.964;2023-07-22T04:55:58;24.17;;;12.30;;
18176;SDS011;9213;50.858;3.964;2023-07-22T04:58:25;23.63;;;12.17;;
18176;SDS011;9213;50.858;3.964;2023-07-22T05:00:52;22.97;;;11.73;;
18176;SDS011;9213;50.858;3.964;2023-07-22T05:03:19;20.53;;;11.77;;
18176;SDS011;9213;50.858;3.964;2023-07-22T05:05:46;20.17;;;12.17;;
18176;SDS011;9213;50.858;3.964;2023-07-22T05:08:14;18.20;;;11.47;;
18176;SDS011;9213;50.858;3.964;2023-07-22T05:10:41;19.77;;;11.83;;
18176;SDS011;9213;50.858;3.964;2023-07-22T05:13:08;19.53;;;12.13;;
18176;SDS011;9213;50.858;3.964;2023-07-22T05:15:35;25.30;;;12.60;;
18176;SDS011;9213;50.858;3.964;2023-07-22T05:18:02;22.20;;;12.47;;
18176;SDS011;9213;50.858;3.964;2023-07-22T05:20:29;19.63;;;11.80;;
18176;SDS011;9213;50.858;3.964;2023-07-22T05:22:56;21.17;;;11.80;;
18176;SDS011;9213;50.858;3.964;2023-07-22T05:25:24;18.10;;;11.00;;
18176;SDS011;9213;50.858;3.964;2023-07-22T05:27:51;20.13;;;12.10;;
18176;SDS011;9213;50.858;3.964;2023-07-22T05:30:18;21.17;;;11.53;;
18176;SDS011;9213;50.858;3.964;2023-07-22T05:32:45;18.53;;;11.70;;
18176;SDS011;9213;50.858;3.964;2023-07-22T05:35:12;21.73;;;11.77;;
18176;SDS011;9213;50.858;3.964;2023-07-22T05:37:39;20.47;;;11.03;;
18176;SDS011;9213;50.858;3.964;2023-07-22T05:40:06;20.93;;;11.40;;
18176;SDS011;9213;50.858;3.964;2023-07-22T05:42:35;25.73;;;11.97;;
18176;SDS011;9213;50.858;3.964;2023-07-22T05:45:03;18.97;;;11.17;;
18176;SDS011;9213;50.858;3.964;2023-07-22T05:47:30;21.10;;;12.07;;
18176;SDS011;9213;50.858;3.964;2023-07-22T05:49:57;19.17;;;10.63;;
18176;SDS011;9213;50.858;3.964;2023-07-22T05:52:24;19.30;;;11.30;;
18176;SDS011;9213;50.858;3.964;2023-07-22T05:54:51;15.37;;;10.63;;
18176;SDS011;9213;50.858;3.964;2023-07-22T05:57:18;21.93;;;11.57;;
18176;SDS011;9213;50.858;3.964;2023-07-22T05:59:46;17.90;;;11.10;;
18176;SDS011;9213;50.858;3.964;2023-07-22T06:02:13;19.50;;;11.23;;
18176;SDS011;9213;50.858;3.964;2023-07-22T06:04:40;17.53;;;10.60;;
18176;SDS011;9213;50.858;3.964;2023-07-22T06:07:06;17.10;;;10.20;;
18176;SDS011;9213;50.858;3.964;2023-07-22T06:09:33;18.77;;;10.63;;
18176;SDS011;9213;50.858;3.964;2023-07-22T06:12:01;18.90;;;10.30;;
18176;SDS011;9213;50.858;3.964;2023-07-22T06:14:28;16.83;;;10.37;;
18176;SDS011;9213;50.858;3.964;2023-07-22T06:16:56;16.33;;;10.60;;
18176;SDS011;9213;50.858;3.964;2023-07-22T06:19:23;15.97;;;10.30;;
18176;SDS011;9213;50.858;3.964;2023-07-22T06:21:50;19.93;;;10.53;;
18176;SDS011;9213;50.858;3.964;2023-07-22T06:24:17;15.60;;;9.83;;
18176;SDS011;9213;50.858;3.964;2023-07-22T06:26:44;20.93;;;10.10;;
18176;SDS011;9213;50.858;3.964;2023-07-22T06:29:11;20.77;;;10.43;;
18176;SDS011;9213;50.858;3.964;2023-07-22T06:31:38;18.77;;;10.20;;
18176;SDS011;9213;50.858;3.964;2023-07-22T06:34:06;19.70;;;9.97;;
18176;SDS011;9213;50.858;3.964;2023-07-22T06:36:33;15.77;;;10.10;;
18176;SDS011;9213;50.858;3.964;2023-07-22T06:39:00;18.60;;;9.90;;
18176;SDS011;9213;50.858;3.964;2023-07-22T06:41:27;18.80;;;9.43;;
18176;SDS011;9213;50.858;3.964;2023-07-22T06:43:54;16.40;;;9.77;;
18176;SDS011;9213;50.858;3.964;2023-07-22T06:46:21;19.00;;;10.00;;
18176;SDS011;9213;50.858;3.964;2023-07-22T06:48:48;18.60;;;10.00;;
18176;SDS011;9213;50.858;3.964;2023-07-22T06:51:16;16.38;;;9.18;;
18176;SDS011;9213;50.858;3.964;2023-07-22T06:53:43;17.92;;;8.90;;
18176;SDS011;9213;50.858;3.964;2023-07-22T06:56:11;15.37;;;8.90;;
18176;SDS011;9213;50.858;3.964;2023-07-22T06:58:38;14.20;;;8.48;;
18176;SDS011;9213;50.858;3.964;2023-07-22T07:01:04;14.40;;;8.95;;
18176;SDS011;9213;50.858;3.964;2023-07-22T07:03:31;14.98;;;9.20;;
18176;SDS011;9213;50.858;3.964;2023-07-22T07:05:58;16.88;;;8.85;;
18176;SDS011;9213;50.858;3.964;2023-07-22T07:08:27;14.23;;;8.88;;
18176;SDS011;9213;50.858;3.964;2023-07-22T07:10:55;17.02;;;9.18;;
18176;SDS011;9213;50.858;3.964;2023-07-22T07:13:22;13.93;;;8.45;;
18176;SDS011;9213;50.858;3.964;2023-07-22T07:15:49;13.63;;;8.82;;
18176;SDS011;9213;50.858;3.964;2023-07-22T07:18:16;15.10;;;9.73;;
18176;SDS011;9213;50.858;3.964;2023-07-22T07:20:43;12.85;;;8.60;;
18176;SDS011;9213;50.858;3.964;2023-07-22T07:23:10;13.40;;;8.85;;
18176;SDS011;9213;50.858;3.964;2023-07-22T07:25:39;18.20;;;9.00;;
18176;SDS011;9213;50.858;3.964;2023-07-22T07:28:06;15.50;;;8.75;;
18176;SDS011;9213;50.858;3.964;2023-07-22T07:30:33;17.13;;;8.40;;
18176;SDS011;9213;50.858;3.964;2023-07-22T07:33:00;13.82;;;8.43;;
18176;SDS011;9213;50.858;3.964;2023-07-22T07:35:26;14.18;;;8.48;;
18176;SDS011;9213;50.858;3.964;2023-07-22T07:37:53;18.02;;;7.55;;
18176;SDS011;9213;50.858;3.964;2023-07-22T07:40:20;13.20;;;7.68;;
18176;SDS011;9213;50.858;3.964;2023-07-22T07:42:48;14.32;;;7.32;;
18176;SDS011;9213;50.858;3.964;2023-07-22T07:45:15;12.40;;;7.55;;
18176;SDS011;9213;50.858;3.964;2023-07-22T07:47:42;11.88;;;7.85;;
18176;SDS011;9213;50.858;3.964;2023-07-22T07:50:09;13.27;;;8.48;;
18176;SDS011;9213;50.858;3.964;2023-07-22T07:52:36;15.95;;;7.03;;
18176;SDS011;9213;50.858;3.964;2023-07-22T07:55:05;11.00;;;7.50;;
18176;SDS011;9213;50.858;3.964;2023-07-22T07:57:32;9.25;;;6.80;;
18176;SDS011;9213;50.858;3.964;2023-07-22T08:00:00;9.55;;;6.68;;
18176;SDS011;9213;50.858;3.964;2023-07-22T08:02:28;11.50;;;6.90;;
18176;SDS011;9213;50.858;3.964;2023-07-22T08:04:55;7.30;;;6.03;;
18176;SDS011;9213;50.858;3.964;2023-07-22T08:07:22;10.27;;;6.72;;
18176;SDS011;9213;50.858;3.964;2023-07-22T08:09:49;11.18;;;6.20;;
18176;SDS011;9213;50.858;3.964;2023-07-22T08:12:17;10.48;;;5.97;;
18176;SDS011;9213;50.858;3.964;2023-07-22T08:14:44;7.97;;;5.75;;
18176;SDS011;9213;50.858;3.964;2023-07-22T08:17:13;15.60;;;6.93;;
18176;SDS011;9213;50.858;3.964;2023-07-22T08:19:40;10.40;;;5.70;;
18176;SDS011;9213;50.858;3.964;2023-07-22T08:22:07;11.07;;;6.15;;
18176;SDS011;9213;50.858;3.964;2023-07-22T08:24:33;8.43;;;6.18;;
18176;SDS011;9213;50.858;3.964;2023-07-22T08:27:00;9.38;;;5.90;;
18176;SDS011;9213;50.858;3.964;2023-07-22T08:29:27;9.27;;;5.88;;
18176;SDS011;9213;50.858;3.964;2023-07-22T08:31:54;9.85;;;5.30;;
18176;SDS011;9213;50.858;3.964;2023-07-22T08:34:23;11.30;;;5.30;;
18176;SDS011;9213;50.858;3.964;2023-07-22T08:36:49;7.57;;;5.15;;
18176;SDS011;9213;50.858;3.964;2023-07-22T08:39:16;8.48;;;5.18;;
18176;SDS011;9213;50.858;3.964;2023-07-22T08:41:44;7.75;;;4.85;;
18176;SDS011;9213;50.858;3.964;2023-07-22T08:44:16;9.38;;;4.93;;
18176;SDS011;9213;50.858;3.964;2023-07-22T08:46:46;7.35;;;4.60;;
18176;SDS011;9213;50.858;3.964;2023-07-22T08:49:15;9.23;;;4.80;;
18176;SDS011;9213;50.858;3.964;2023-07-22T08:51:43;15.52;;;6.55;;
18176;SDS011;9213;50.858;3.964;2023-07-22T08:54:11;18.65;;;5.80;;
18176;SDS011;9213;50.858;3.964;2023-07-22T08:56:40;7.97;;;4.60;;
18176;SDS011;9213;50.858;3.964;2023-07-22T08:59:08;10.27;;;4.10;;
18176;SDS011;9213;50.858;3.964;2023-07-22T09:01:36;12.18;;;4.40;;
18176;SDS011;9213;50.858;3.964;2023-07-22T09:04:04;7.60;;;3.40;;
18176;SDS011;9213;50.858;3.964;2023-07-22T09:06:31;6.50;;;3.60;;
18176;SDS011;9213;50.858;3.964;2023-07-22T09:09:01;6.30;;;3.00;;
18176;SDS011;9213;50.858;3.964;2023-07-22T09:11:32;5.07;;;2.85;;
18176;SDS011;9213;50.858;3.964;2023-07-22T09:14:00;5.65;;;2.53;;
18176;SDS011;9213;50.858;3.964;2023-07-22T09:16:29;4.45;;;2.78;;
18176;SDS011;9213;50.858;3.964;2023-07-22T09:18:57;4.05;;;2.92;;
18176;SDS011;9213;50.858;3.964;2023-07-22T09:21:24;5.60;;;2.88;;
18176;SDS011;9213;50.858;3.964;2023-07-22T09:23:53;7.20;;;2.75;;
18176;SDS011;9213;50.858;3.964;2023-07-22T09:26:21;6.10;;;2.50;;
18176;SDS011;9213;50.858;3.964;2023-07-22T09:28:51;3.33;;;2.45;;
18176;SDS011;9213;50.858;3.964;2023-07-22T09:31:20;6.68;;;2.60;;
18176;SDS011;9213;50.858;3.964;2023-07-22T09:33:47;7.15;;;2.97;;
18176;SDS011;9213;50.858;3.964;2023-07-22T09:36:15;7.90;;;3.13;;
18176;SDS011;9213;50.858;3.964;2023-07-22T09:38:43;3.40;;;2.05;;
18176;SDS011;9213;50.858;3.964;2023-07-22T09:41:10;3.78;;;2.35;;
18176;SDS011;9213;50.858;3.964;2023-07-22T09:43:39;4.07;;;2.45;;
18176;SDS011;9213;50.858;3.964;2023-07-22T09:46:07;3.75;;;1.75;;
18176;SDS011;9213;50.858;3.964;2023-07-22T09:48:44;4.03;;;1.98;;
18176;SDS011;9213;50.858;3.964;2023-07-22T09:51:12;12.98;;;2.53;;
18176;SDS011;9213;50.858;3.964;2023-07-22T09:53:46;3.83;;;1.75;;
18176;SDS011;9213;50.858;3.964;2023-07-22T09:56:13;5.35;;;1.70;;
18176;SDS011;9213;50.858;3.964;2023-07-22T09:58:41;2.67;;;1.80;;
18176;SDS011;9213;50.858;3.964;2023-07-22T10:01:11;3.75;;;1.83;;
18176;SDS011;9213;50.858;3.964;2023-07-22T10:03:41;2.65;;;1.80;;
18176;SDS011;9213;50.858;3.964;2023-07-22T10:06:11;3.22;;;1.90;;
18176;SDS011;9213;50.858;3.964;2023-07-22T10:08:40;2.10;;;1.63;;
18176;SDS011;9213;50.858;3.964;2023-07-22T10:11:11;3.15;;;2.08;;
18176;SDS011;9213;50.858;3.964;2023-07-22T10:13:39;2.05;;;1.90;;
18176;SDS011;9213;50.858;3.964;2023-07-22T10:16:08;2.03;;;1.90;;
18176;SDS011;9213;50.858;3.964;2023-07-22T10:18:36;3.10;;;1.88;;
18176;SDS011;9213;50.858;3.964;2023-07-22T10:21:07;3.67;;;1.88;;
18176;SDS011;9213;50.858;3.964;2023-07-22T10:23:34;5.70;;;2.03;;
18176;SDS011;9213;50.858;3.964;2023-07-22T10:26:02;3.13;;;1.80;;
18176;SDS011;9213;50.858;3.964;2023-07-22T10:28:33;1.98;;;1.80;;
18176;SDS011;9213;50.858;3.964;2023-07-22T10:31:01;3.38;;;1.70;;
18176;SDS011;9213;50.858;3.964;2023-07-22T10:33:29;2.63;;;1.98;;
18176;SDS011;9213;50.858;3.964;2023-07-22T10:36:03;3.10;;;1.80;;
18176;SDS011;9213;50.858;3.964;2023-07-22T10:38:31;3.92;;;1.88;;
18176;SDS011;9213;50.858;3.964;2023-07-22T10:40:58;2.13;;;1.90;;
18176;SDS011;9213;50.858;3.964;2023-07-22T10:43:26;4.70;;;1.90;;
18176;SDS011;9213;50.858;3.964;2023-07-22T10:45:56;2.00;;;1.80;;
18176;SDS011;9213;50.858;3.964;2023-07-22T10:48:25;3.08;;;1.80;;
18176;SDS011;9213;50.858;3.964;2023-07-22T10:51:00;3.30;;;1.85;;
18176;SDS011;9213;50.858;3.964;2023-07-22T10:53:32;2.53;;;2.08;;
18176;SDS011;9213;50.858;3.964;2023-07-22T10:56:10;2.60;;;1.98;;
18176;SDS011;9213;50.858;3.964;2023-07-22T10:58:55;2.58;;;1.80;;
18176;SDS011;9213;50.858;3.964;2023-07-22T11:01:24;4.72;;;1.88;;
18176;SDS011;9213;50.858;3.964;2023-07-22T11:04:06;1.98;;;1.77;;
18176;SDS011;9213;50.858;3.964;2023-07-22T11:06:39;1.90;;;1.80;;
18176;SDS011;9213;50.858;3.964;2023-07-22T11:09:38;2.10;;;1.88;;
18176;SDS011;9213;50.858;3.964;2023-07-22T11:12:08;3.08;;;1.85;;
18176;SDS011;9213;50.858;3.964;2023-07-22T11:14:41;2.00;;;1.73;;
18176;SDS011;9213;50.858;3.964;2023-07-22T11:17:12;4.43;;;2.10;;
18176;SDS011;9213;50.858;3.964;2023-07-22T11:19:39;2.55;;;2.03;;
18176;SDS011;9213;50.858;3.964;2023-07-22T11:22:07;2.70;;;1.70;;
18176;SDS011;9213;50.858;3.964;2023-07-22T11:24:35;4.43;;;2.00;;
18176;SDS011;9213;50.858;3.964;2023-07-22T11:27:03;2.15;;;1.60;;
18176;SDS011;9213;50.858;3.964;2023-07-22T11:29:31;4.65;;;2.08;;
18176;SDS011;9213;50.858;3.964;2023-07-22T11:31:58;2.85;;;2.13;;
18176;SDS011;9213;50.858;3.964;2023-07-22T11:34:25;1.98;;;1.75;;
18176;SDS011;9213;50.858;3.964;2023-07-22T11:36:53;2.63;;;1.90;;
18176;SDS011;9213;50.858;3.964;2023-07-22T11:39:23;4.15;;;1.98;;
18176;SDS011;9213;50.858;3.964;2023-07-22T11:41:51;2.55;;;2.00;;
18176;SDS011;9213;50.858;3.964;2023-07-22T11:44:19;2.50;;;2.00;;
18176;SDS011;9213;50.858;3.964;2023-07-22T11:46:48;4.57;;;2.03;;
18176;SDS011;9213;50.858;3.964;2023-07-22T11:49:24;2.78;;;2.17;;
18176;SDS011;9213;50.858;3.964;2023-07-22T11:51:57;2.40;;;1.73;;
18176;SDS011;9213;50.858;3.964;2023-07-22T11:54:26;2.40;;;2.20;;
18176;SDS011;9213;50.858;3.964;2023-07-22T11:56:54;2.58;;;1.95;;
18176;SDS011;9213;50.858;3.964;2023-07-22T11:59:35;3.15;;;2.03;;
18176;SDS011;9213;50.858;3.964;2023-07-22T12:02:03;3.10;;;2.00;;
18176;SDS011;9213;50.858;3.964;2023-07-22T12:04:31;4.70;;;2.00;;
18176;SDS011;9213;50.858;3.964;2023-07-22T12:06:58;4.38;;;2.10;;
18176;SDS011;9213;50.858;3.964;2023-07-22T12:09:26;4.28;;;1.90;;
18176;SDS011;9213;50.858;3.964;2023-07-22T12:11:57;2.88;;;1.90;;
18176;SDS011;9213;50.858;3.964;2023-07-22T12:14:24;4.05;;;1.83;;
18176;SDS011;9213;50.858;3.964;2023-07-22T12:17:02;2.53;;;1.98;;
18176;SDS011;9213;50.858;3.964;2023-07-22T12:19:29;3.80;;;2.05;;
18176;SDS011;9213;50.858;3.964;2023-07-22T12:21:56;3.47;;;2.13;;
18176;SDS011;9213;50.858;3.964;2023-07-22T12:24:23;2.85;;;1.95;;
18176;SDS011;9213;50.858;3.964;2023-07-22T12:26:52;2.42;;;1.88;;
18176;SDS011;9213;50.858;3.964;2023-07-22T12:29:18;2.35;;;2.00;;
18176;SDS011;9213;50.858;3.964;2023-07-22T12:31:47;2.83;;;2.10;;
18176;SDS011;9213;50.858;3.964;2023-07-22T12:34:14;7.30;;;2.83;;
18176;SDS011;9213;50.858;3.964;2023-07-22T12:36:41;2.85;;;2.15;;
18176;SDS011;9213;50.858;3.964;2023-07-22T12:39:08;4.00;;;2.00;;
18176;SDS011;9213;50.858;3.964;2023-07-22T12:41:35;4.55;;;2.13;;
18176;SDS011;9213;50.858;3.964;2023-07-22T12:44:03;6.60;;;2.10;;
18176;SDS011;9213;50.858;3.964;2023-07-22T12:46:30;2.92;;;2.00;;
18176;SDS011;9213;50.858;3.964;2023-07-22T12:48:57;3.30;;;2.00;;
18176;SDS011;9213;50.858;3.964;2023-07-22T12:51:24;3.20;;;2.05;;
18176;SDS011;9213;50.858;3.964;2023-07-22T12:53:51;4.22;;;1.60;;
18176;SDS011;9213;50.858;3.964;2023-07-22T12:56:18;3.40;;;1.70;;
18176;SDS011;9213;50.858;3.964;2023-07-22T12:58:44;3.33;;;1.67;;
18176;SDS011;9213;50.858;3.964;2023-07-22T13:01:13;7.75;;;2.05;;
18176;SDS011;9213;50.858;3.964;2023-07-22T13:03:40;2.50;;;1.80;;
18176;SDS011;9213;50.858;3.964;2023-07-22T13:06:06;3.20;;;2.05;;
18176;SDS011;9213;50.858;3.964;2023-07-22T13:08:33;4.35;;;1.92;;
18176;SDS011;9213;50.858;3.964;2023-07-22T13:11:00;5.28;;;1.88;;
18176;SDS011;9213;50.858;3.964;2023-07-22T13:13:28;2.58;;;1.75;;
18176;SDS011;9213;50.858;3.964;2023-07-22T13:15:55;3.78;;;1.90;;
18176;SDS011;9213;50.858;3.964;2023-07-22T13:18:23;3.88;;;1.70;;
18176;SDS011;9213;50.858;3.964;2023-07-22T13:20:50;5.30;;;1.90;;
18176;SDS011;9213;50.858;3.964;2023-07-22T13:23:17;2.67;;;1.70;;
18176;SDS011;9213;50.858;3.964;2023-07-22T13:25:44;4.30;;;2.15;;
18176;SDS011;9213;50.858;3.964;2023-07-22T13:28:11;4.40;;;2.00;;
18176;SDS011;9213;50.858;3.964;2023-07-22T13:30:38;4.13;;;1.83;;
18176;SDS011;9213;50.858;3.964;2023-07-22T13:33:05;5.18;;;1.90;;
18176;SDS011;9213;50.858;3.964;2023-07-22T13:35:33;3.10;;;1.92;;
18176;SDS011;9213;50.858;3.964;2023-07-22T13:38:00;2.80;;;1.70;;
18176;SDS011;9213;50.858;3.964;2023-07-22T13:40:27;3.13;;;1.73;;
18176;SDS011;9213;50.858;3.964;2023-07-22T13:42:54;2.72;;;1.83;;
18176;SDS011;9213;50.858;3.964;2023-07-22T13:45:21;7.25;;;1.85;;
18176;SDS011;9213;50.858;3.964;2023-07-22T13:47:47;4.85;;;1.60;;
18176;SDS011;9213;50.858;3.964;2023-07-22T13:50:14;5.40;;;1.80;;
18176;SDS011;9213;50.858;3.964;2023-07-22T13:52:43;4.97;;;2.10;;
18176;SDS011;9213;50.858;3.964;2023-07-22T13:55:10;2.95;;;1.70;;
18176;SDS011;9213;50.858;3.964;2023-07-22T13:57:36;3.25;;;1.65;;
18176;SDS011;9213;50.858;3.964;2023-07-22T14:00:04;3.00;;;1.90;;
18176;SDS011;9213;50.858;3.964;2023-07-22T14:02:33;2.88;;;1.83;;
18176;SDS011;9213;50.858;3.964;2023-07-22T14:05:00;4.22;;;1.70;;
18176;SDS011;9213;50.858;3.964;2023-07-22T14:07:28;2.15;;;1.50;;
18176;SDS011;9213;50.858;3.964;2023-07-22T14:09:56;3.03;;;1.80;;
18176;SDS011;9213;50.858;3.964;2023-07-22T14:12:23;2.65;;;1.70;;
18176;SDS011;9213;50.858;3.964;2023-07-22T14:14:50;4.55;;;2.03;;
18176;SDS011;9213;50.858;3.964;2023-07-22T14:17:17;2.40;;;1.85;;
18176;SDS011;9213;50.858;3.964;2023-07-22T14:19:44;5.10;;;1.63;;
18176;SDS011;9213;50.858;3.964;2023-07-22T14:22:11;5.15;;;2.00;;
18176;SDS011;9213;50.858;3.964;2023-07-22T14:24:37;4.45;;;1.98;;
18176;SDS011;9213;50.858;3.964;2023-07-22T14:27:06;6.00;;;2.20;;
18176;SDS011;9213;50.858;3.964;2023-07-22T14:29:33;3.63;;;2.08;;
18176;SDS011;9213;50.858;3.964;2023-07-22T14:32:00;2.85;;;1.60;;
18176;SDS011;9213;50.858;3.964;2023-07-22T14:34:28;2.85;;;1.70;;
18176;SDS011;9213;50.858;3.964;2023-07-22T14:36:54;4.18;;;1.90;;
18176;SDS011;9213;50.858;3.964;2023-07-22T14:39:21;3.75;;;2.10;;
18176;SDS011;9213;50.858;3.964;2023-07-22T14:41:48;3.70;;;2.30;;
18176;SDS011;9213;50.858;3.964;2023-07-22T14:44:18;4.28;;;1.95;;
18176;SDS011;9213;50.858;3.964;2023-07-22T14:46:45;4.07;;;2.28;;
18176;SDS011;9213;50.858;3.964;2023-07-22T14:49:12;3.08;;;2.00;;
18176;SDS011;9213;50.858;3.964;2023-07-22T14:51:39;2.88;;;2.05;;